Healing, United Kingdom
Current Conditions -  °F | °C
As of 6:50 PM on Thursday 30 Oct 2014 (Local Time) from EGNJ Reporting Station
Few Clouds Few Clouds  
Wind Chill: 61°   Ceiling: Unl
Heat Index: 61°   Visibility: 5mi
Dew Point: 57°   Wind: 14mph
Humidity: 88%   Direction: 170°S
Pressure: 30"   Gusts: NA
Location:  53.58°N, 0.16°W
Report Text: EGNJ 301850Z 17012KT 8000 FEW048 16/14 Q1016
Loading
Personal Weather Stations






























Interactive Weather Map New forecast layout! Learn more

10-Day Weather Forecast

Advertisements
Track Severe Weather on mobile